createdAt,value
2023-04-25T00:01:58.858Z,24.30
2023-04-25T00:04:28.904Z,24.30
2023-04-25T00:06:57.294Z,24.30
2023-04-25T00:09:25.009Z,24.30
2023-04-25T00:11:52.790Z,24.30
2023-04-25T00:14:20.488Z,24.30
2023-04-25T00:16:49.453Z,24.30
2023-04-25T00:19:17.299Z,24.30
2023-04-25T00:21:47.364Z,24.30
2023-04-25T00:24:15.233Z,24.30
2023-04-25T00:26:42.924Z,24.30
2023-04-25T00:29:10.786Z,24.30
2023-04-25T00:31:40.175Z,24.30
2023-04-25T00:34:09.412Z,24.30
2023-04-25T00:36:37.404Z,24.30
2023-04-25T00:39:05.753Z,24.30
2023-04-25T00:41:34.290Z,24.30
2023-04-25T00:44:03.999Z,24.30
2023-04-25T00:46:32.733Z,24.30
2023-04-25T00:49:00.632Z,24.30
2023-04-25T00:51:28.605Z,24.30
2023-04-25T00:53:56.653Z,24.30
2023-04-25T00:56:24.660Z,24.30
2023-04-25T00:58:56.416Z,24.30
2023-04-25T01:01:24.681Z,24.30
2023-04-25T01:03:55.427Z,24.30
2023-04-25T01:06:23.878Z,24.30
2023-04-25T01:08:52.854Z,24.30
2023-04-25T01:11:21.047Z,24.30
2023-04-25T01:13:49.310Z,24.30
2023-04-25T01:16:17.144Z,24.30
2023-04-25T01:18:48.393Z,24.20
2023-04-25T01:21:16.417Z,24.20
2023-04-25T01:23:44.868Z,24.30
2023-04-25T01:26:13.456Z,24.30
2023-04-25T01:28:44.578Z,24.30
2023-04-25T01:31:14.030Z,24.20
2023-04-25T01:33:42.019Z,24.20
2023-04-25T01:36:10.254Z,24.30
2023-04-25T01:38:38.128Z,24.30
2023-04-25T01:41:06.612Z,24.20
2023-04-25T01:43:34.450Z,24.30
2023-04-25T01:46:02.366Z,24.20
2023-04-25T01:48:30.101Z,24.20
2023-04-25T01:50:58.167Z,24.20
2023-04-25T01:53:26.610Z,24.20
2023-04-25T01:55:54.673Z,24.30
2023-04-25T01:58:24.437Z,24.20
2023-04-25T02:01:15.384Z,24.20
2023-04-25T02:03:49.740Z,24.20
2023-04-25T02:06:33.370Z,24.20
2023-04-25T02:09:01.272Z,24.30
2023-04-25T02:11:29.074Z,24.20
2023-04-25T02:14:15.247Z,24.20
2023-04-25T02:16:49.530Z,24.20
2023-04-25T02:19:17.613Z,24.20
2023-04-25T02:21:45.375Z,24.20
2023-04-25T02:24:13.260Z,24.20
2023-04-25T02:26:40.938Z,24.20
2023-04-25T02:29:11.126Z,24.20
2023-04-25T02:31:38.962Z,24.20
2023-04-25T02:34:06.706Z,24.20
2023-04-25T02:36:37.537Z,24.20
2023-04-25T02:39:06.135Z,24.20
2023-04-25T02:41:34.009Z,24.20
2023-04-25T02:44:01.864Z,24.20
2023-04-25T02:46:39.079Z,24.10
2023-04-25T02:49:08.073Z,24.20
2023-04-25T02:51:36.888Z,24.20
2023-04-25T02:54:04.887Z,24.20
2023-04-25T02:56:36.889Z,24.20
2023-04-25T02:59:07.506Z,24.20
2023-04-25T03:01:35.379Z,24.10
2023-04-25T03:04:03.206Z,24.20
2023-04-25T03:06:31.921Z,24.10
2023-04-25T03:08:59.741Z,24.10
2023-04-25T03:11:28.302Z,24.10
2023-04-25T03:13:56.578Z,24.10
2023-04-25T03:16:25.447Z,24.10
2023-04-25T03:18:53.184Z,24.10
2023-04-25T03:21:21.206Z,24.10
2023-04-25T03:23:49.411Z,24.10
2023-04-25T03:26:17.509Z,24.10
2023-04-25T03:28:45.931Z,24.10
2023-04-25T03:31:14.438Z,24.00
2023-04-25T03:33:42.629Z,24.00
2023-04-25T03:36:11.159Z,24.00
2023-04-25T03:38:39.831Z,24.00
2023-04-25T03:41:08.465Z,24.00
2023-04-25T03:43:49.138Z,24.00
2023-04-25T03:46:18.433Z,24.00
2023-04-25T03:48:47.210Z,24.00
2023-04-25T03:51:21.272Z,24.00
2023-04-25T03:53:51.159Z,24.00
2023-04-25T03:56:25.073Z,23.90
2023-04-25T03:59:01.274Z,23.90
2023-04-25T04:01:30.833Z,24.00
2023-04-25T04:03:59.610Z,24.00
2023-04-25T04:06:28.630Z,24.00
2023-04-25T04:09:06.349Z,24.00
2023-04-25T04:11:39.589Z,24.00
2023-04-25T04:14:08.570Z,23.80
2023-04-25T04:16:38.838Z,23.30
2023-04-25T04:19:06.888Z,23.30
2023-04-25T04:21:35.990Z,23.30
2023-04-25T04:24:05.057Z,23.30
2023-04-25T04:26:41.349Z,23.10
2023-04-25T04:29:24.072Z,23.00
2023-04-25T04:32:21.516Z,23.00
2023-04-25T04:34:49.883Z,23.00
2023-04-25T04:37:20.263Z,23.10
2023-04-25T04:39:48.673Z,23.10
2023-04-25T04:42:37.382Z,23.10
2023-04-25T04:45:32.260Z,23.20
2023-04-25T04:48:19.100Z,23.20
2023-04-25T04:51:02.331Z,23.30
2023-04-25T04:53:49.144Z,23.40
2023-04-25T04:56:40.624Z,23.40
2023-04-25T04:59:23.996Z,23.60
2023-04-25T05:02:08.832Z,23.30
2023-04-25T05:04:53.975Z,22.80
2023-04-25T05:07:40.621Z,22.90
2023-04-25T05:10:35.918Z,23.10
2023-04-25T05:13:27.017Z,23.30
2023-04-25T05:20:37.596Z,23.50
2023-04-25T05:23:26.215Z,23.70
2023-04-25T05:26:15.100Z,23.80
2023-04-25T05:29:06.908Z,24.00
2023-04-25T05:31:49.425Z,24.10
2023-04-25T05:34:18.667Z,24.20
2023-04-25T05:37:00.226Z,24.30
2023-04-25T05:39:29.336Z,24.30
2023-04-25T05:42:12.765Z,24.40
2023-04-25T05:45:05.167Z,24.50
2023-04-25T05:47:56.795Z,24.60
2023-04-25T05:50:45.347Z,24.60
2023-04-25T05:53:34.974Z,24.70
2023-04-25T05:56:04.385Z,24.80
2023-04-25T05:58:32.550Z,24.80
2023-04-25T06:01:02.103Z,24.80
2023-04-25T06:07:59.762Z,24.90
2023-04-25T06:10:28.288Z,24.90
2023-04-25T06:12:56.475Z,25.00
2023-04-25T06:15:28.555Z,25.00
2023-04-25T06:17:58.130Z,25.10
2023-04-25T06:20:26.785Z,25.10
2023-04-25T06:22:57.798Z,25.20
2023-04-25T06:25:39.108Z,25.30
2023-04-25T06:28:07.977Z,25.30
2023-04-25T06:30:36.638Z,25.30
2023-04-25T06:33:10.033Z,25.30
2023-04-25T06:35:39.872Z,25.40
2023-04-25T06:38:11.408Z,25.40
2023-04-25T06:40:41.582Z,25.40
2023-04-25T06:43:11.304Z,25.50
2023-04-25T06:45:51.831Z,25.50
2023-04-25T06:48:22.188Z,25.50
2023-04-25T06:50:50.913Z,25.60
2023-04-25T06:53:20.043Z,25.60
2023-04-25T06:55:52.214Z,25.60
2023-04-25T06:58:23.646Z,25.60
2023-04-25T07:00:58.678Z,25.70
2023-04-25T07:03:28.530Z,25.70
2023-04-25T07:06:01.574Z,25.70
2023-04-25T07:08:31.232Z,25.70
2023-04-25T07:11:00.618Z,25.80
2023-04-25T07:13:28.901Z,25.80
2023-04-25T07:15:58.116Z,25.80
2023-04-25T07:18:26.886Z,25.80
2023-04-25T07:20:55.214Z,25.80
2023-04-25T07:23:23.558Z,25.80
2023-04-25T07:25:52.559Z,25.80
2023-04-25T07:28:23.644Z,25.80
2023-04-25T07:30:52.013Z,25.70
2023-04-25T07:33:21.760Z,25.60
2023-04-25T07:35:50.093Z,25.60
2023-04-25T07:38:18.932Z,25.60
2023-04-25T07:40:48.799Z,25.50
2023-04-25T07:43:18.309Z,25.50
2023-04-25T07:46:01.201Z,25.50
2023-04-25T07:48:32.752Z,25.40
2023-04-25T07:51:01.146Z,25.40
2023-04-25T07:53:29.532Z,25.40
2023-04-25T07:56:03.593Z,25.40
2023-04-25T07:58:34.693Z,25.40
2023-04-25T08:01:08.172Z,25.30
2023-04-25T08:03:36.908Z,25.40
2023-04-25T08:06:10.636Z,25.40
2023-04-25T08:08:51.941Z,25.30
2023-04-25T08:11:23.241Z,25.30
2023-04-25T08:13:51.710Z,25.40
2023-04-25T08:16:20.070Z,25.30
2023-04-25T08:18:48.588Z,25.40
2023-04-25T08:21:16.940Z,25.30
2023-04-25T08:23:46.627Z,25.30
2023-04-25T08:26:26.583Z,25.30
2023-04-25T08:28:55.285Z,25.30
2023-04-25T08:31:24.553Z,25.30
2023-04-25T08:33:59.870Z,25.30
2023-04-25T08:36:40.180Z,25.30
2023-04-25T08:39:27.472Z,25.30
2023-04-25T08:42:23.728Z,25.30
2023-04-25T08:44:54.478Z,25.30
2023-04-25T08:47:25.870Z,25.30
2023-04-25T08:49:59.503Z,25.30
2023-04-25T08:52:36.671Z,25.30
2023-04-25T08:55:08.462Z,25.30
2023-04-25T08:57:37.244Z,25.30
2023-04-25T09:00:06.674Z,25.30
2023-04-25T09:02:41.365Z,25.30
2023-04-25T09:05:11.195Z,25.30
2023-04-25T09:07:39.712Z,25.30
2023-04-25T09:10:09.041Z,25.30
2023-04-25T09:12:40.531Z,25.30
2023-04-25T09:15:20.556Z,25.30
2023-04-25T09:17:59.233Z,25.30
2023-04-25T09:20:35.188Z,25.30
2023-04-25T09:23:06.289Z,25.30
2023-04-25T09:25:44.505Z,25.30
2023-04-25T09:28:13.339Z,25.30
2023-04-25T09:30:41.695Z,25.30
2023-04-25T09:33:17.524Z,25.30
2023-04-25T09:35:56.422Z,25.30
2023-04-25T09:38:47.979Z,25.30
2023-04-25T09:41:40.215Z,25.30
2023-04-25T09:44:08.440Z,25.30
2023-04-25T09:46:39.293Z,24.90
2023-04-25T09:49:16.311Z,24.50
2023-04-25T09:51:59.918Z,24.60
2023-04-25T09:54:37.697Z,24.80
2023-04-25T09:57:21.351Z,24.90
2023-04-25T09:59:55.177Z,25.10
2023-04-25T10:02:27.263Z,25.20
2023-04-25T10:05:04.678Z,25.30
2023-04-25T10:07:41.324Z,25.30
2023-04-25T10:10:19.760Z,25.40
2023-04-25T10:12:48.958Z,25.50
2023-04-25T10:15:17.728Z,25.50
2023-04-25T10:17:46.969Z,25.50
2023-04-25T10:20:15.598Z,25.60
2023-04-25T10:22:47.525Z,25.60
2023-04-25T10:25:16.718Z,25.70
2023-04-25T10:27:45.138Z,25.70
2023-04-25T10:30:17.049Z,25.70
2023-04-25T10:32:51.197Z,25.70
2023-04-25T10:35:25.665Z,25.70
2023-04-25T10:38:06.811Z,25.60
2023-04-25T10:40:35.329Z,25.60
2023-04-25T10:43:29.150Z,25.50
2023-04-25T10:45:57.471Z,25.60
2023-04-25T10:48:32.587Z,25.50
2023-04-25T10:51:10.917Z,25.50
2023-04-25T10:53:39.596Z,25.60
2023-04-25T10:56:27.565Z,25.50
2023-04-25T10:59:13.768Z,25.50
2023-04-25T11:01:46.896Z,25.60
2023-04-25T11:04:26.827Z,25.60
2023-04-25T11:07:06.962Z,25.60
2023-04-25T11:09:37.198Z,25.60
2023-04-25T11:12:06.308Z,25.60
2023-04-25T11:14:34.792Z,25.60
2023-04-25T11:17:03.895Z,25.60
2023-04-25T11:19:32.384Z,25.50
2023-04-25T11:22:02.755Z,25.50
2023-04-25T11:24:33.244Z,25.50
2023-04-25T11:27:03.559Z,25.50
2023-04-25T11:29:36.227Z,25.40
2023-04-25T11:32:04.669Z,25.50
2023-04-25T11:34:34.711Z,25.50
2023-04-25T11:37:04.505Z,25.40
2023-04-25T11:39:33.002Z,25.40
2023-04-25T11:42:02.816Z,25.50
2023-04-25T11:44:36.112Z,25.50
2023-04-25T11:47:05.007Z,25.60
2023-04-25T11:49:34.404Z,25.60
2023-04-25T11:52:03.030Z,25.60
2023-04-25T11:54:31.331Z,25.70
2023-04-25T11:56:59.786Z,25.70
2023-04-25T11:59:28.078Z,25.70
2023-04-25T12:01:57.058Z,25.70
2023-04-25T12:04:26.710Z,25.60
2023-04-25T12:06:56.895Z,25.30
2023-04-25T12:09:33.149Z,25.20
2023-04-25T12:12:05.970Z,24.90
2023-04-25T12:14:37.012Z,24.60
2023-04-25T12:17:09.155Z,24.60
2023-04-25T12:19:42.377Z,24.60
2023-04-25T12:22:24.632Z,24.50
2023-04-25T12:24:55.429Z,24.50
2023-04-25T12:27:27.277Z,24.50
2023-04-25T12:29:58.880Z,24.50
2023-04-25T12:32:27.758Z,24.50
2023-04-25T12:34:56.422Z,24.40
2023-04-25T12:37:24.680Z,24.50
2023-04-25T12:39:53.068Z,24.50
2023-04-25T12:42:21.586Z,24.30
2023-04-25T12:44:50.070Z,24.20
2023-04-25T12:47:18.471Z,24.20
2023-04-25T12:49:46.757Z,23.90
2023-04-25T12:52:15.089Z,23.70
2023-04-25T12:54:43.577Z,23.70
2023-04-25T12:57:12.655Z,23.80
2023-04-25T12:59:41.131Z,24.30
2023-04-25T13:02:09.803Z,24.60
2023-04-25T13:04:37.999Z,24.80
2023-04-25T13:07:06.648Z,25.10
2023-04-25T13:09:35.124Z,25.10
2023-04-25T13:12:03.436Z,25.30
2023-04-25T13:14:31.852Z,25.40
2023-04-25T13:17:00.358Z,25.50
2023-04-25T13:19:29.039Z,25.50
2023-04-25T13:21:57.315Z,25.70
2023-04-25T13:24:25.474Z,25.70
2023-04-25T13:26:53.936Z,25.80
2023-04-25T13:29:22.198Z,25.80
2023-04-25T13:31:52.323Z,25.80
2023-04-25T13:34:20.756Z,25.80
2023-04-25T13:36:48.984Z,25.80
2023-04-25T13:43:52.505Z,25.80
2023-04-25T13:46:40.968Z,25.80
2023-04-25T13:49:12.731Z,25.90
2023-04-25T13:51:43.621Z,25.90
2023-04-25T13:54:12.404Z,26.00
2023-04-25T13:56:43.502Z,26.00
2023-04-25T13:59:12.568Z,25.90
2023-04-25T14:01:41.025Z,25.90
2023-04-25T14:04:09.561Z,25.90
2023-04-25T14:06:37.988Z,25.90
2023-04-25T14:09:07.914Z,25.90
2023-04-25T14:11:36.466Z,26.00
2023-04-25T14:14:04.723Z,26.00
2023-04-25T14:16:33.239Z,26.10
2023-04-25T14:19:02.172Z,26.10
2023-04-25T14:21:32.913Z,26.10
2023-04-25T14:24:01.221Z,26.10
2023-04-25T14:26:29.654Z,26.20
2023-04-25T14:28:57.958Z,26.20
2023-04-25T14:31:26.392Z,26.30
2023-04-25T14:33:57.618Z,26.30
2023-04-25T14:36:29.593Z,26.30
2023-04-25T14:38:58.324Z,26.30
2023-04-25T14:41:27.430Z,26.40
2023-04-25T14:43:56.950Z,26.40
2023-04-25T14:46:25.368Z,26.40
2023-04-25T14:48:53.811Z,26.40
2023-04-25T14:51:22.149Z,26.50
2023-04-25T14:53:51.942Z,26.50
2023-04-25T14:56:20.686Z,26.60
2023-04-25T14:58:49.089Z,26.60
2023-04-25T15:01:17.975Z,26.60
2023-04-25T15:03:46.810Z,26.60
2023-04-25T15:06:15.486Z,26.50
2023-04-25T15:08:43.772Z,26.50
2023-04-25T15:11:12.441Z,26.40
2023-04-25T15:13:41.540Z,26.50
2023-04-25T15:16:09.760Z,26.40
2023-04-25T15:18:38.191Z,26.40
2023-04-25T15:21:06.799Z,26.40
2023-04-25T15:23:35.062Z,26.30
2023-04-25T15:26:03.825Z,26.30
2023-04-25T15:28:32.671Z,26.30
2023-04-25T15:31:03.414Z,26.30
2023-04-25T15:33:32.316Z,26.30
2023-04-25T15:36:00.855Z,26.20
2023-04-25T15:38:29.112Z,26.20
2023-04-25T15:40:57.376Z,26.20
2023-04-25T15:43:25.880Z,26.20
2023-04-25T15:45:54.181Z,26.20
2023-04-25T15:48:22.614Z,26.10
2023-04-25T15:50:50.860Z,26.10
2023-04-25T15:53:19.192Z,26.10
2023-04-25T15:55:47.508Z,26.00
2023-04-25T15:58:15.906Z,26.00
2023-04-25T16:00:44.021Z,26.00
2023-04-25T16:03:12.282Z,25.90
2023-04-25T16:05:41.178Z,25.90
2023-04-25T16:08:09.254Z,25.90
2023-04-25T16:10:37.573Z,25.90
2023-04-25T16:13:05.669Z,25.90
2023-04-25T16:15:35.473Z,25.90
2023-04-25T16:18:04.515Z,25.80
2023-04-25T16:20:33.022Z,25.80
2023-04-25T16:23:01.516Z,25.80
2023-04-25T16:25:29.900Z,25.80
2023-04-25T16:27:58.157Z,25.80
2023-04-25T16:30:26.496Z,25.80
2023-04-25T16:32:57.375Z,25.80
2023-04-25T16:35:26.100Z,25.80
2023-04-25T16:37:54.162Z,25.70
2023-04-25T16:40:22.114Z,25.70
2023-04-25T16:42:50.263Z,25.70
2023-04-25T16:45:20.435Z,25.70
2023-04-25T16:47:48.612Z,25.70
2023-04-25T16:50:17.327Z,25.60
2023-04-25T16:52:45.733Z,25.70
2023-04-25T16:55:13.845Z,25.70
2023-04-25T16:57:42.025Z,25.70
2023-04-25T17:00:10.750Z,25.60
2023-04-25T17:02:39.198Z,25.60
2023-04-25T17:05:07.706Z,25.60
2023-04-25T17:07:35.963Z,25.60
2023-04-25T17:10:04.039Z,25.60
2023-04-25T17:12:32.359Z,25.50
2023-04-25T17:15:01.448Z,25.60
2023-04-25T17:17:30.415Z,25.50
2023-04-25T17:19:58.449Z,25.50
2023-04-25T17:22:26.586Z,25.50
2023-04-25T17:24:54.869Z,25.50
2023-04-25T17:27:22.936Z,25.50
2023-04-25T17:29:51.268Z,25.50
2023-04-25T17:32:19.262Z,25.40
2023-04-25T17:34:48.284Z,25.50
2023-04-25T17:37:16.971Z,25.50
2023-04-25T17:39:45.793Z,25.40
2023-04-25T17:42:14.815Z,25.40
2023-04-25T17:44:43.245Z,25.40
2023-04-25T17:47:11.859Z,25.40
2023-04-25T17:49:40.083Z,25.40
2023-04-25T17:52:08.515Z,25.40
2023-04-25T17:54:36.760Z,25.40
2023-04-25T17:57:04.955Z,25.30
2023-04-25T17:59:33.402Z,25.40
2023-04-25T18:02:01.703Z,25.30
2023-04-25T18:04:30.141Z,25.30
2023-04-25T18:06:58.299Z,25.30
2023-04-25T18:09:26.563Z,25.30
2023-04-25T18:11:54.523Z,25.30
2023-04-25T18:14:22.938Z,25.30
2023-04-25T18:16:53.878Z,25.30
2023-04-25T18:19:22.734Z,25.30
2023-04-25T18:21:54.969Z,25.30
2023-04-25T18:24:26.473Z,25.30
2023-04-25T18:26:56.138Z,25.30
2023-04-25T18:29:33.044Z,25.30
2023-04-25T18:32:02.483Z,25.20
2023-04-25T18:34:31.392Z,25.20
2023-04-25T18:37:00.011Z,25.20
2023-04-25T18:39:28.100Z,25.20
2023-04-25T18:42:03.229Z,25.20
2023-04-25T18:44:36.711Z,25.20
2023-04-25T18:47:04.588Z,25.20
2023-04-25T18:49:33.914Z,25.20
2023-04-25T18:52:03.766Z,25.20
2023-04-25T18:54:32.310Z,25.20
2023-04-25T18:57:01.375Z,25.10
2023-04-25T18:59:30.470Z,25.20
2023-04-25T19:01:58.543Z,25.20
2023-04-25T19:04:26.981Z,25.20
2023-04-25T19:06:55.295Z,25.20
2023-04-25T19:09:23.534Z,25.20
2023-04-25T19:11:51.802Z,25.20
2023-04-25T19:14:19.759Z,25.10
2023-04-25T19:16:47.836Z,25.20
2023-04-25T19:19:15.802Z,25.10
2023-04-25T19:21:43.840Z,25.10
2023-04-25T19:24:12.075Z,25.10
2023-04-25T19:26:40.245Z,25.10
2023-04-25T19:29:12.544Z,25.10
2023-04-25T19:31:42.069Z,25.10
2023-04-25T19:34:10.162Z,25.00
2023-04-25T19:36:39.586Z,25.10
2023-04-25T19:39:08.131Z,25.00
2023-04-25T19:41:38.377Z,25.00
2023-04-25T19:44:09.652Z,25.00
2023-04-25T19:46:38.748Z,25.00
2023-04-25T19:49:09.125Z,25.00
2023-04-25T19:51:37.702Z,25.00
2023-04-25T19:54:05.946Z,24.90
2023-04-25T19:56:34.248Z,24.90
2023-04-25T19:59:02.336Z,25.00
2023-04-25T20:01:33.040Z,24.90
2023-04-25T20:04:01.789Z,24.90
2023-04-25T20:06:29.828Z,24.90
2023-04-25T20:08:58.143Z,24.90
2023-04-25T20:11:29.300Z,24.90
2023-04-25T20:13:57.516Z,24.90
2023-04-25T20:16:25.822Z,24.90
2023-04-25T20:18:54.289Z,24.90
2023-04-25T20:21:23.138Z,24.80
2023-04-25T20:23:51.308Z,24.80
2023-04-25T20:26:21.365Z,24.80
2023-04-25T20:28:50.782Z,24.80
2023-04-25T20:31:19.673Z,24.90
2023-04-25T20:33:48.246Z,24.80
2023-04-25T20:36:16.355Z,24.80
2023-04-25T20:38:44.422Z,24.80
2023-04-25T20:41:12.552Z,24.80
2023-04-25T20:43:42.380Z,24.80
2023-04-25T20:46:10.710Z,24.80
2023-04-25T20:48:38.726Z,24.80
2023-04-25T20:51:07.453Z,24.80
2023-04-25T20:53:35.731Z,24.80
2023-04-25T20:56:04.579Z,24.80
2023-04-25T20:58:33.472Z,24.80
2023-04-25T21:01:03.345Z,24.80
2023-04-25T21:03:32.695Z,24.80
2023-04-25T21:06:01.793Z,24.80
2023-04-25T21:08:29.928Z,24.80
2023-04-25T21:10:57.869Z,24.80
2023-04-25T21:13:29.015Z,24.80
2023-04-25T21:15:58.055Z,24.70
2023-04-25T21:18:26.286Z,24.80
2023-04-25T21:20:54.406Z,24.80
2023-04-25T21:23:22.455Z,24.80
2023-04-25T21:25:52.132Z,24.70
2023-04-25T21:28:21.154Z,24.80
2023-04-25T21:30:49.455Z,24.70
2023-04-25T21:33:17.361Z,24.70
2023-04-25T21:35:46.222Z,24.70
2023-04-25T21:38:15.776Z,24.70
2023-04-25T21:40:44.122Z,24.70
2023-04-25T21:43:12.479Z,24.70
2023-04-25T21:46:02.145Z,24.60
2023-04-25T21:48:28.762Z,24.60
2023-04-25T21:55:28.509Z,24.60
2023-04-25T21:57:56.683Z,24.60
2023-04-25T22:00:25.018Z,24.60
2023-04-25T22:02:54.177Z,24.60
2023-04-25T22:05:23.557Z,24.60
2023-04-25T22:07:53.226Z,24.60
2023-04-25T22:10:22.156Z,24.60
2023-04-25T22:12:51.039Z,24.60
2023-04-25T22:15:21.650Z,24.60
2023-04-25T22:17:52.518Z,24.60
2023-04-25T22:20:26.384Z,24.60
2023-04-25T22:22:58.749Z,24.60
2023-04-25T22:25:26.969Z,24.60
2023-04-25T22:27:55.946Z,24.60
2023-04-25T22:30:24.227Z,24.60
2023-04-25T22:32:52.445Z,24.60
2023-04-25T22:35:20.423Z,24.60
2023-04-25T22:37:49.309Z,24.60
2023-04-25T22:40:18.241Z,24.60
2023-04-25T22:42:46.902Z,24.60
2023-04-25T22:45:14.987Z,24.50
2023-04-25T22:47:43.251Z,24.50
2023-04-25T22:50:16.981Z,24.50
2023-04-25T22:52:46.545Z,24.50
2023-04-25T22:55:14.877Z,24.50
2023-04-25T22:57:43.246Z,24.50
2023-04-25T23:00:16.684Z,24.50
2023-04-25T23:02:46.697Z,24.50
2023-04-25T23:05:15.592Z,24.50
2023-04-25T23:07:46.305Z,24.50
2023-04-25T23:10:14.574Z,24.50
2023-04-25T23:12:42.899Z,24.50
2023-04-25T23:15:13.186Z,24.50
2023-04-25T23:17:42.230Z,24.50
2023-04-25T23:20:11.098Z,24.50
2023-04-25T23:22:39.613Z,24.50
2023-04-25T23:25:08.812Z,24.50
2023-04-25T23:27:37.435Z,24.50
2023-04-25T23:30:06.518Z,24.50
2023-04-25T23:32:34.794Z,24.50
2023-04-25T23:35:04.994Z,24.40
2023-04-25T23:37:42.940Z,24.50
2023-04-25T23:40:14.220Z,24.40
2023-04-25T23:42:42.542Z,24.40
2023-04-25T23:45:11.370Z,24.40
2023-04-25T23:47:39.366Z,24.40
2023-04-25T23:50:08.599Z,24.40
2023-04-25T23:52:36.612Z,24.40
2023-04-25T23:55:05.627Z,24.40
2023-04-25T23:57:34.103Z,24.40
